Thumrait, Oman
Current Conditions -  °F | °C
As of 4:55 PM on Friday 19 Dec 2014 (Local Time) from KQTH Reporting Station
Clear Clear  
Wind Chill: 76°   Ceiling: Unl
Heat Index: 76°   Visibility: 6mi
Dew Point: 38°   Wind: 14mph
Humidity: 25%   Direction: 40°NE
Pressure: 30.18"   Gusts: NA
Location:  17.63°N, 54.02°E
Report Text: KQTH 191255Z 04012KT 9999 CLR 24/03 A3018 RMK AO2A SLP212 T02430033
Loading
Personal Weather Stations






























Interactive Weather Map New forecast layout! Learn more

10-Day Weather Forecast

Advertisements
Track Severe Weather on mobile